sensor_id;sensor_type;location;lat;lon;timestamp;pressure;altitude;pressure_sealevel;temperature;humidity
21960;BME280;11144;43.030;25.108;2023-04-10T00:00:32;99423.75;;;9.30;100.00
21960;BME280;11144;43.030;25.108;2023-04-10T00:02:25;99423.66;;;9.33;100.00
21960;BME280;11144;43.030;25.108;2023-04-10T00:04:05;99418.38;;;9.33;100.00
21960;BME280;11144;43.030;25.108;2023-04-10T00:05:58;99422.03;;;9.29;100.00
21960;BME280;11144;43.030;25.108;2023-04-10T00:07:45;99422.19;;;9.23;100.00
21960;BME280;11144;43.030;25.108;2023-04-10T00:09:32;99414.47;;;9.17;100.00
21960;BME280;11144;43.030;25.108;2023-04-10T00:11:11;99419.00;;;9.12;100.00
21960;BME280;11144;43.030;25.108;2023-04-10T00:12:51;99413.91;;;9.06;100.00
21960;BME280;11144;43.030;25.108;2023-04-10T00:14:46;99408.81;;;9.00;100.00
21960;BME280;11144;43.030;25.108;2023-04-10T00:16:26;99411.47;;;8.98;100.00
21960;BME280;11144;43.030;25.108;2023-04-10T00:18:27;99408.88;;;8.97;100.00
21960;BME280;11144;43.030;25.108;2023-04-10T00:20:27;99405.00;;;8.79;100.00
21960;BME280;11144;43.030;25.108;2023-04-10T00:22:06;99402.38;;;8.78;100.00
21960;BME280;11144;43.030;25.108;2023-04-10T00:24:06;99407.81;;;8.72;100.00
21960;BME280;11144;43.030;25.108;2023-04-10T00:26:07;99413.28;;;8.66;100.00
21960;BME280;11144;43.030;25.108;2023-04-10T00:27:48;99409.88;;;8.61;100.00
21960;BME280;11144;43.030;25.108;2023-04-10T00:29:41;99407.44;;;8.55;100.00
21960;BME280;11144;43.030;25.108;2023-04-10T00:31:22;99404.94;;;8.49;100.00
21960;BME280;11144;43.030;25.108;2023-04-10T00:33:16;99406.66;;;8.50;100.00
21960;BME280;11144;43.030;25.108;2023-04-10T00:35:02;99396.16;;;8.48;100.00
21960;BME280;11144;43.030;25.108;2023-04-10T00:36:49;99406.66;;;8.50;100.00
21960;BME280;11144;43.030;25.108;2023-04-10T00:38:28;99396.97;;;8.52;100.00
21960;BME280;11144;43.030;25.108;2023-04-10T00:40:08;99399.66;;;8.49;100.00
21960;BME280;11144;43.030;25.108;2023-04-10T00:42:01;99387.41;;;8.48;100.00
21960;BME280;11144;43.030;25.108;2023-04-10T00:43:43;99391.72;;;8.50;100.00
21960;BME280;11144;43.030;25.108;2023-04-10T00:45:44;99386.53;;;8.47;100.00
21960;BME280;11144;43.030;25.108;2023-04-10T00:47:45;99391.81;;;8.47;100.00
21960;BME280;11144;43.030;25.108;2023-04-10T00:49:25;99391.03;;;8.44;100.00
21960;BME280;11144;43.030;25.108;2023-04-10T00:51:17;99384.13;;;8.40;100.00
21960;BME280;11144;43.030;25.108;2023-04-10T00:52:58;99379.03;;;8.32;100.00
21960;BME280;11144;43.030;25.108;2023-04-10T00:54:51;99377.28;;;8.33;100.00
21960;BME280;11144;43.030;25.108;2023-04-10T00:56:44;99380.97;;;8.26;100.00
21960;BME280;11144;43.030;25.108;2023-04-10T00:58:44;99385.41;;;8.24;100.00
21960;BME280;11144;43.030;25.108;2023-04-10T01:00:24;99376.88;;;8.13;100.00
21960;BME280;11144;43.030;25.108;2023-04-10T01:02:17;99376.13;;;8.08;100.00
21960;BME280;11144;43.030;25.108;2023-04-10T01:03:58;99371.00;;;8.02;100.00
21960;BME280;11144;43.030;25.108;2023-04-10T01:06:01;99380.84;;;7.95;100.00
21960;BME280;11144;43.030;25.108;2023-04-10T01:07:57;99384.44;;;7.91;100.00
21960;BME280;11144;43.030;25.108;2023-04-10T01:09:51;99386.41;;;7.83;100.00
21960;BME280;11144;43.030;25.108;2023-04-10T01:11:44;99379.44;;;7.81;100.00
21960;BME280;11144;43.030;25.108;2023-04-10T01:13:34;99383.31;;;7.65;100.00
21960;BME280;11144;43.030;25.108;2023-04-10T01:15:29;99379.25;;;7.52;100.00
21960;BME280;11144;43.030;25.108;2023-04-10T01:17:17;99384.66;;;7.46;100.00
21960;BME280;11144;43.030;25.108;2023-04-10T01:19:31;99377.72;;;7.42;100.00
21960;BME280;11144;43.030;25.108;2023-04-10T01:21:39;99374.38;;;7.35;100.00
21960;BME280;11144;43.030;25.108;2023-04-10T01:23:55;99379.72;;;7.31;100.00
21960;BME280;11144;43.030;25.108;2023-04-10T01:26:05;99381.53;;;7.29;100.00
21960;BME280;11144;43.030;25.108;2023-04-10T01:28:23;99379.72;;;7.31;100.00
21960;BME280;11144;43.030;25.108;2023-04-10T01:30:12;99385.91;;;7.30;100.00
21960;BME280;11144;43.030;25.108;2023-04-10T01:32:16;99372.81;;;7.27;100.00
21960;BME280;11144;43.030;25.108;2023-04-10T01:34:22;99376.41;;;7.23;100.00
21960;BME280;11144;43.030;25.108;2023-04-10T01:36:05;99381.84;;;7.13;100.00
21960;BME280;11144;43.030;25.108;2023-04-10T01:38:00;99377.75;;;7.00;100.00
21960;BME280;11144;43.030;25.108;2023-04-10T01:39:41;99383.31;;;6.87;100.00
21960;BME280;11144;43.030;25.108;2023-04-10T01:41:43;99384.25;;;6.84;100.00
21960;BME280;11144;43.030;25.108;2023-04-10T01:43:32;99382.44;;;6.86;100.00
21960;BME280;11144;43.030;25.108;2023-04-10T01:45:28;99385.91;;;6.88;100.00
21960;BME280;11144;43.030;25.108;2023-04-10T01:47:08;99387.88;;;6.77;100.00
21960;BME280;11144;43.030;25.108;2023-04-10T01:49:08;99391.56;;;6.67;100.00
21960;BME280;11144;43.030;25.108;2023-04-10T01:51:16;99389.84;;;6.66;100.00
21960;BME280;11144;43.030;25.108;2023-04-10T01:52:57;99381.84;;;6.71;100.00
21960;BME280;11144;43.030;25.108;2023-04-10T01:54:52;99377.38;;;6.77;100.00
21960;BME280;11144;43.030;25.108;2023-04-10T01:56:40;99385.94;;;6.87;100.00
21960;BME280;11144;43.030;25.108;2023-04-10T01:58:46;99387.63;;;6.89;100.00
21960;BME280;11144;43.030;25.108;2023-04-10T02:00:38;99382.38;;;6.89;100.00
21960;BME280;11144;43.030;25.108;2023-04-10T02:02:31;99374.53;;;6.86;100.00
21960;BME280;11144;43.030;25.108;2023-04-10T02:04:18;99380.75;;;6.82;100.00
21960;BME280;11144;43.030;25.108;2023-04-10T02:06:14;99373.88;;;6.75;100.00
21960;BME280;11144;43.030;25.108;2023-04-10T02:08:01;99380.00;;;6.77;100.00
21960;BME280;11144;43.030;25.108;2023-04-10T02:10:01;99382.69;;;6.74;100.00
21960;BME280;11144;43.030;25.108;2023-04-10T02:11:54;99375.13;;;6.58;100.00
21960;BME280;11144;43.030;25.108;2023-04-10T02:13:44;99383.06;;;6.55;100.00
21960;BME280;11144;43.030;25.108;2023-04-10T02:15:26;99382.28;;;6.50;100.00
21960;BME280;11144;43.030;25.108;2023-04-10T02:17:11;99383.31;;;6.41;100.00
21960;BME280;11144;43.030;25.108;2023-04-10T02:19:06;99380.13;;;6.24;100.00
21960;BME280;11144;43.030;25.108;2023-04-10T02:20:48;99393.22;;;6.26;100.00
21960;BME280;11144;43.030;25.108;2023-04-10T02:22:51;99391.53;;;6.23;100.00
21960;BME280;11144;43.030;25.108;2023-04-10T02:24:54;99394.06;;;6.28;100.00
21960;BME280;11144;43.030;25.108;2023-04-10T02:26:45;99390.56;;;6.27;100.00
21960;BME280;11144;43.030;25.108;2023-04-10T02:28:45;99390.56;;;6.27;100.00
21960;BME280;11144;43.030;25.108;2023-04-10T02:30:45;99401.13;;;6.24;100.00
21960;BME280;11144;43.030;25.108;2023-04-10T02:32:26;99399.50;;;6.17;100.00
21960;BME280;11144;43.030;25.108;2023-04-10T02:34:20;99392.47;;;6.19;100.00
21960;BME280;11144;43.030;25.108;2023-04-10T02:36:00;99387.22;;;6.19;100.00
21960;BME280;11144;43.030;25.108;2023-04-10T02:37:53;99385.31;;;6.27;100.00
21960;BME280;11144;43.030;25.108;2023-04-10T02:39:41;99388.72;;;6.32;100.00
21960;BME280;11144;43.030;25.108;2023-04-10T02:41:29;99385.28;;;6.30;100.00
21960;BME280;11144;43.030;25.108;2023-04-10T02:43:10;99387.88;;;6.32;100.00
21960;BME280;11144;43.030;25.108;2023-04-10T02:44:50;99397.50;;;6.31;100.00
21960;BME280;11144;43.030;25.108;2023-04-10T02:46:48;99385.28;;;6.30;100.00
21960;BME280;11144;43.030;25.108;2023-04-10T02:48:29;99385.31;;;6.27;100.00
21960;BME280;11144;43.030;25.108;2023-04-10T02:50:31;99385.31;;;6.27;100.00
21960;BME280;11144;43.030;25.108;2023-04-10T02:52:32;99385.22;;;6.33;100.00
21960;BME280;11144;43.030;25.108;2023-04-10T02:54:12;99388.63;;;6.38;100.00
21960;BME280;11144;43.030;25.108;2023-04-10T02:56:06;99384.28;;;6.37;100.00
21960;BME280;11144;43.030;25.108;2023-04-10T02:57:46;99385.91;;;6.43;100.00
21960;BME280;11144;43.030;25.108;2023-04-10T02:59:51;99394.63;;;6.43;100.00
21960;BME280;11144;43.030;25.108;2023-04-10T03:01:58;99383.41;;;6.35;100.00
21960;BME280;11144;43.030;25.108;2023-04-10T03:03:52;99386.72;;;6.46;100.00
21960;BME280;11144;43.030;25.108;2023-04-10T03:05:37;99399.75;;;6.52;100.00
21960;BME280;11144;43.030;25.108;2023-04-10T03:07:42;99382.97;;;6.59;100.00
21960;BME280;11144;43.030;25.108;2023-04-10T03:09:42;99388.22;;;6.59;100.00
21960;BME280;11144;43.030;25.108;2023-04-10T03:11:23;99384.69;;;6.60;100.00
21960;BME280;11144;43.030;25.108;2023-04-10T03:13:23;99385.69;;;6.55;100.00
21960;BME280;11144;43.030;25.108;2023-04-10T03:15:23;99393.72;;;6.47;100.00
21960;BME280;11144;43.030;25.108;2023-04-10T03:17:03;99397.22;;;6.46;100.00
21960;BME280;11144;43.030;25.108;2023-04-10T03:18:59;99389.44;;;6.42;100.00
21960;BME280;11144;43.030;25.108;2023-04-10T03:20:39;99396.50;;;6.38;100.00
21960;BME280;11144;43.030;25.108;2023-04-10T03:22:32;99395.69;;;6.36;100.00
21960;BME280;11144;43.030;25.108;2023-04-10T03:24:21;99400.94;;;6.36;100.00
21960;BME280;11144;43.030;25.108;2023-04-10T03:26:08;99404.28;;;6.44;100.00
21960;BME280;11144;43.030;25.108;2023-04-10T03:27:49;99405.91;;;6.51;100.00
21960;BME280;11144;43.030;25.108;2023-04-10T03:29:28;99399.59;;;6.60;100.00
21960;BME280;11144;43.030;25.108;2023-04-10T03:31:21;99403.81;;;6.68;100.00
21960;BME280;11144;43.030;25.108;2023-04-10T03:33:06;99404.53;;;6.75;100.00
21960;BME280;11144;43.030;25.108;2023-04-10T03:35:11;99407.13;;;6.78;100.00
21960;BME280;11144;43.030;25.108;2023-04-10T03:37:11;99407.09;;;6.79;100.00
21960;BME280;11144;43.030;25.108;2023-04-10T03:38:54;99401.00;;;6.79;100.00
21960;BME280;11144;43.030;25.108;2023-04-10T03:40:47;99398.50;;;6.71;100.00
21960;BME280;11144;43.030;25.108;2023-04-10T03:42:32;99401.97;;;6.73;100.00
21960;BME280;11144;43.030;25.108;2023-04-10T03:44:24;99416.78;;;6.77;100.00
21960;BME280;11144;43.030;25.108;2023-04-10T03:46:16;99413.25;;;6.78;100.00
21960;BME280;11144;43.030;25.108;2023-04-10T03:48:02;99407.22;;;6.73;100.00
21960;BME280;11144;43.030;25.108;2023-04-10T03:49:47;99407.16;;;6.75;100.00
21960;BME280;11144;43.030;25.108;2023-04-10T03:51:29;99408.88;;;6.79;100.00
21960;BME280;11144;43.030;25.108;2023-04-10T03:53:22;99405.31;;;6.81;100.00
21960;BME280;11144;43.030;25.108;2023-04-10T03:55:02;99417.56;;;6.81;100.00
21960;BME280;11144;43.030;25.108;2023-04-10T03:56:43;99415.88;;;6.78;100.00
21960;BME280;11144;43.030;25.108;2023-04-10T03:58:36;99409.84;;;6.73;100.00
21960;BME280;11144;43.030;25.108;2023-04-10T04:00:17;99412.34;;;6.79;100.00
21960;BME280;11144;43.030;25.108;2023-04-10T04:02:31;99419.47;;;6.74;100.00
21960;BME280;11144;43.030;25.108;2023-04-10T04:04:49;99414.31;;;6.68;100.00
21960;BME280;11144;43.030;25.108;2023-04-10T04:06:48;99418.59;;;6.72;100.00
21960;BME280;11144;43.030;25.108;2023-04-10T04:09:17;99416.84;;;6.73;100.00
21960;BME280;11144;43.030;25.108;2023-04-10T04:11:20;99414.25;;;6.71;100.00
21960;BME280;11144;43.030;25.108;2023-04-10T04:13:20;99423.84;;;6.74;100.00
21960;BME280;11144;43.030;25.108;2023-04-10T04:15:19;99420.44;;;6.69;100.00
21960;BME280;11144;43.030;25.108;2023-04-10T04:17:23;99421.53;;;6.57;100.00
21960;BME280;11144;43.030;25.108;2023-04-10T04:19:10;99423.19;;;6.61;100.00
21960;BME280;11144;43.030;25.108;2023-04-10T04:21:20;99423.16;;;6.64;100.00
21960;BME280;11144;43.030;25.108;2023-04-10T04:23:53;99425.50;;;6.78;100.00
21960;BME280;11144;43.030;25.108;2023-04-10T04:25:59;99429.69;;;6.88;100.00
21960;BME280;11144;43.030;25.108;2023-04-10T04:28:20;99426.88;;;6.97;100.00
21960;BME280;11144;43.030;25.108;2023-04-10T04:30:13;99417.13;;;7.03;100.00
21960;BME280;11144;43.030;25.108;2023-04-10T04:32:31;99423.84;;;7.17;100.00
21960;BME280;11144;43.030;25.108;2023-04-10T04:34:45;99428.94;;;7.26;100.00
21960;BME280;11144;43.030;25.108;2023-04-10T04:36:53;99425.34;;;7.30;100.00
21960;BME280;11144;43.030;25.108;2023-04-10T04:38:35;99418.22;;;7.35;100.00
21960;BME280;11144;43.030;25.108;2023-04-10T04:40:49;99426.84;;;7.40;100.00
21960;BME280;11144;43.030;25.108;2023-04-10T04:42:53;99425.00;;;7.45;100.00
21960;BME280;11144;43.030;25.108;2023-04-10T04:45:09;99419.69;;;7.48;100.00
21960;BME280;11144;43.030;25.108;2023-04-10T04:47:21;99417.88;;;7.50;100.00
21960;BME280;11144;43.030;25.108;2023-04-10T04:49:20;99428.22;;;7.59;100.00
21960;BME280;11144;43.030;25.108;2023-04-10T04:51:29;99428.06;;;7.65;100.00
21960;BME280;11144;43.030;25.108;2023-04-10T04:53:43;99429.00;;;7.62;100.00
21960;BME280;11144;43.030;25.108;2023-04-10T04:55:59;99431.94;;;7.49;100.00
21960;BME280;11144;43.030;25.108;2023-04-10T04:58:09;99426.66;;;7.49;100.00
21960;BME280;11144;43.030;25.108;2023-04-10T05:00:27;99429.88;;;7.63;100.00
21960;BME280;11144;43.030;25.108;2023-04-10T05:02:30;99436.78;;;7.67;100.00
21960;BME280;11144;43.030;25.108;2023-04-10T05:04:35;99443.66;;;7.74;100.00
21960;BME280;11144;43.030;25.108;2023-04-10T05:06:38;99432.97;;;7.80;100.00
21960;BME280;11144;43.030;25.108;2023-04-10T05:08:38;99439.88;;;7.84;100.00
21960;BME280;11144;43.030;25.108;2023-04-10T05:10:44;99438.88;;;7.89;100.00
21960;BME280;11144;43.030;25.108;2023-04-10T05:12:48;99438.69;;;7.98;100.00
21960;BME280;11144;43.030;25.108;2023-04-10T05:14:45;99435.84;;;8.06;100.00
21960;BME280;11144;43.030;25.108;2023-04-10T05:16:41;99439.03;;;8.20;100.00
21960;BME280;11144;43.030;25.108;2023-04-10T05:19:06;99437.97;;;8.28;100.00
21960;BME280;11144;43.030;25.108;2023-04-10T05:21:21;99430.75;;;8.35;100.00
21960;BME280;11144;43.030;25.108;2023-04-10T05:23:40;99440.50;;;8.33;100.00
21960;BME280;11144;43.030;25.108;2023-04-10T05:25:53;99440.25;;;8.42;100.00
21960;BME280;11144;43.030;25.108;2023-04-10T05:28:07;99442.78;;;8.46;100.00
21960;BME280;11144;43.030;25.108;2023-04-10T05:30:13;99449.63;;;8.53;100.00
21960;BME280;11144;43.030;25.108;2023-04-10T05:32:25;99440.91;;;8.50;100.00
21960;BME280;11144;43.030;25.108;2023-04-10T05:34:35;99450.31;;;8.60;100.00
21960;BME280;11144;43.030;25.108;2023-04-10T05:36:50;99453.00;;;8.58;100.00
21960;BME280;11144;43.030;25.108;2023-04-10T05:39:07;99458.66;;;8.77;100.00
21960;BME280;11144;43.030;25.108;2023-04-10T05:41:07;99457.44;;;8.88;100.00
21960;BME280;11144;43.030;25.108;2023-04-10T05:43:12;99454.78;;;8.90;100.00
21960;BME280;11144;43.030;25.108;2023-04-10T05:45:30;99450.91;;;9.03;100.00
21960;BME280;11144;43.030;25.108;2023-04-10T05:47:59;99454.91;;;9.16;100.00
21960;BME280;11144;43.030;25.108;2023-04-10T05:49:46;99446.94;;;9.19;100.00
21960;BME280;11144;43.030;25.108;2023-04-10T05:51:26;99450.56;;;9.15;100.00
21960;BME280;11144;43.030;25.108;2023-04-10T05:53:32;99446.97;;;9.17;100.00
21960;BME280;11144;43.030;25.108;2023-04-10T05:55:35;99448.56;;;9.23;100.00
21960;BME280;11144;43.030;25.108;2023-04-10T05:57:50;99450.13;;;9.30;100.00
21960;BME280;11144;43.030;25.108;2023-04-10T06:00:11;99449.72;;;9.43;100.00
21960;BME280;11144;43.030;25.108;2023-04-10T06:02:11;99458.16;;;9.56;100.00
21960;BME280;11144;43.030;25.108;2023-04-10T06:04:11;99455.88;;;9.73;100.00
21960;BME280;11144;43.030;25.108;2023-04-10T06:06:01;99450.13;;;9.88;100.00
21960;BME280;11144;43.030;25.108;2023-04-10T06:07:48;99453.38;;;9.96;100.00
21960;BME280;11144;43.030;25.108;2023-04-10T06:09:36;99458.31;;;10.08;100.00
21960;BME280;11144;43.030;25.108;2023-04-10T06:11:22;99460.72;;;10.15;100.00
21960;BME280;11144;43.030;25.108;2023-04-10T06:13:03;99460.66;;;10.17;100.00
21960;BME280;11144;43.030;25.108;2023-04-10T06:14:43;99452.16;;;10.35;100.00
21960;BME280;11144;43.030;25.108;2023-04-10T06:16:37;99461.78;;;10.62;100.00
21960;BME280;11144;43.030;25.108;2023-04-10T06:18:19;99457.41;;;10.87;100.00
21960;BME280;11144;43.030;25.108;2023-04-10T06:20:20;99452.00;;;11.15;100.00
21960;BME280;11144;43.030;25.108;2023-04-10T06:22:20;99452.00;;;11.15;100.00
21960;BME280;11144;43.030;25.108;2023-04-10T06:24:00;99445.94;;;11.11;100.00
21960;BME280;11144;43.030;25.108;2023-04-10T06:26:00;99449.88;;;11.24;100.00
21960;BME280;11144;43.030;25.108;2023-04-10T06:28:00;99454.19;;;11.50;100.00
21960;BME280;11144;43.030;25.108;2023-04-10T06:29:40;99449.00;;;11.71;100.00
21960;BME280;11144;43.030;25.108;2023-04-10T06:31:35;99448.53;;;12.05;100.00
21960;BME280;11144;43.030;25.108;2023-04-10T06:33:17;99445.34;;;12.40;100.00
21960;BME280;11144;43.030;25.108;2023-04-10T06:35:10;99447.41;;;12.73;100.00
21960;BME280;11144;43.030;25.108;2023-04-10T06:36:57;99445.97;;;12.86;100.00
21960;BME280;11144;43.030;25.108;2023-04-10T06:38:43;99434.13;;;12.95;100.00
21960;BME280;11144;43.030;25.108;2023-04-10T06:40:23;99449.94;;;12.96;100.00
21960;BME280;11144;43.030;25.108;2023-04-10T06:42:04;99446.19;;;13.02;100.00
21960;BME280;11144;43.030;25.108;2023-04-10T06:44:11;99444.28;;;13.05;100.00
21960;BME280;11144;43.030;25.108;2023-04-10T06:45:52;99445.94;;;13.08;100.00
21960;BME280;11144;43.030;25.108;2023-04-10T06:47:52;99444.78;;;12.93;100.00
21960;BME280;11144;43.030;25.108;2023-04-10T06:49:54;99444.06;;;12.70;100.00
21960;BME280;11144;43.030;25.108;2023-04-10T06:51:33;99443.56;;;12.60;100.00
21960;BME280;11144;43.030;25.108;2023-04-10T06:53:26;99447.28;;;12.76;100.00
21960;BME280;11144;43.030;25.108;2023-04-10T06:55:07;99450.75;;;12.78;100.00
21960;BME280;11144;43.030;25.108;2023-04-10T06:57:00;99442.94;;;12.75;100.00
21960;BME280;11144;43.030;25.108;2023-04-10T06:58:46;99440.53;;;12.89;100.00
21960;BME280;11144;43.030;25.108;2023-04-10T07:00:33;99441.38;;;13.11;100.00
21960;BME280;11144;43.030;25.108;2023-04-10T07:02:13;99444.22;;;13.45;100.00
21960;BME280;11144;43.030;25.108;2023-04-10T07:03:54;99445.75;;;13.69;100.00
21960;BME280;11144;43.030;25.108;2023-04-10T07:05:49;99443.75;;;13.75;100.00
21960;BME280;11144;43.030;25.108;2023-04-10T07:07:28;99442.41;;;13.46;100.00
21960;BME280;11144;43.030;25.108;2023-04-10T07:09:28;99440.13;;;13.57;100.00
21960;BME280;11144;43.030;25.108;2023-04-10T07:11:29;99438.28;;;13.77;100.00
21960;BME280;11144;43.030;25.108;2023-04-10T07:13:09;99438.56;;;14.09;100.00
21960;BME280;11144;43.030;25.108;2023-04-10T07:15:09;99448.53;;;14.58;100.00
21960;BME280;11144;43.030;25.108;2023-04-10T07:17:09;99436.81;;;14.96;100.00
21960;BME280;11144;43.030;25.108;2023-04-10T07:18:49;99435.47;;;15.21;100.00
21960;BME280;11144;43.030;25.108;2023-04-10T07:20:42;99437.19;;;15.55;100.00
21960;BME280;11144;43.030;25.108;2023-04-10T07:22:24;99439.19;;;15.51;100.00
21960;BME280;11144;43.030;25.108;2023-04-10T07:24:24;99440.31;;;15.47;100.00
21960;BME280;11144;43.030;25.108;2023-04-10T07:26:05;99444.88;;;15.61;100.00
21960;BME280;11144;43.030;25.108;2023-04-10T07:27:58;99436.13;;;15.74;100.00
21960;BME280;11144;43.030;25.108;2023-04-10T07:29:37;99432.00;;;15.69;100.00
21960;BME280;11144;43.030;25.108;2023-04-10T07:31:38;99435.09;;;15.77;100.00
21960;BME280;11144;43.030;25.108;2023-04-10T07:33:39;99428.88;;;15.61;100.00
21960;BME280;11144;43.030;25.108;2023-04-10T07:35:18;99435.56;;;15.52;100.00
21960;BME280;11144;43.030;25.108;2023-04-10T07:37:11;99433.66;;;15.87;100.00
21960;BME280;11144;43.030;25.108;2023-04-10T07:38:53;99424.97;;;16.14;100.00
21960;BME280;11144;43.030;25.108;2023-04-10T07:40:46;99431.94;;;16.48;100.00
21960;BME280;11144;43.030;25.108;2023-04-10T07:42:33;99427.66;;;16.75;100.00
21960;BME280;11144;43.030;25.108;2023-04-10T07:44:19;99429.56;;;16.73;100.00
21960;BME280;11144;43.030;25.108;2023-04-10T07:45:59;99420.81;;;16.85;100.00
21960;BME280;11144;43.030;25.108;2023-04-10T07:47:39;99417.53;;;17.10;100.00
21960;BME280;11144;43.030;25.108;2023-04-10T07:49:32;99422.13;;;17.22;100.00
21960;BME280;11144;43.030;25.108;2023-04-10T07:51:18;99417.25;;;17.28;100.00
21960;BME280;11144;43.030;25.108;2023-04-10T07:53:11;99415.00;;;17.36;100.00
21960;BME280;11144;43.030;25.108;2023-04-10T07:54:53;99419.75;;;17.31;100.00
21960;BME280;11144;43.030;25.108;2023-04-10T07:56:46;99412.47;;;17.19;100.00
21960;BME280;11144;43.030;25.108;2023-04-10T07:58:39;99408.44;;;16.98;100.00
21960;BME280;11144;43.030;25.108;2023-04-10T08:00:39;99406.53;;;17.00;100.00
21960;BME280;11144;43.030;25.108;2023-04-10T08:02:19;99402.53;;;17.07;100.00
21960;BME280;11144;43.030;25.108;2023-04-10T08:04:12;99408.28;;;17.15;100.00
21960;BME280;11144;43.030;25.108;2023-04-10T08:05:52;99411.28;;;16.81;100.00
21960;BME280;11144;43.030;25.108;2023-04-10T08:07:45;99399.50;;;16.99;100.00
21960;BME280;11144;43.030;25.108;2023-04-10T08:09:31;99395.47;;;17.20;100.00
21960;BME280;11144;43.030;25.108;2023-04-10T08:11:23;99401.78;;;17.19;100.00
21960;BME280;11144;43.030;25.108;2023-04-10T08:13:04;99396.09;;;17.25;100.00
21960;BME280;11144;43.030;25.108;2023-04-10T08:14:45;99395.88;;;17.28;100.00
21960;BME280;11144;43.030;25.108;2023-04-10T08:16:37;99401.66;;;16.92;100.00
21960;BME280;11144;43.030;25.108;2023-04-10T08:18:18;99405.19;;;16.93;100.00
21960;BME280;11144;43.030;25.108;2023-04-10T08:20:18;99397.53;;;16.73;100.00
21960;BME280;11144;43.030;25.108;2023-04-10T08:22:18;99398.59;;;16.55;100.00
21960;BME280;11144;43.030;25.108;2023-04-10T08:24:00;99391.00;;;16.63;100.00
21960;BME280;11144;43.030;25.108;2023-04-10T08:26:00;99393.72;;;16.77;100.00
21960;BME280;11144;43.030;25.108;2023-04-10T08:28:02;99390.09;;;16.78;100.00
21960;BME280;11144;43.030;25.108;2023-04-10T08:29:42;99381.41;;;16.88;100.00
21960;BME280;11144;43.030;25.108;2023-04-10T08:31:35;99386.28;;;16.82;100.00
21960;BME280;11144;43.030;25.108;2023-04-10T08:33:15;99379.56;;;16.75;100.00
21960;BME280;11144;43.030;25.108;2023-04-10T08:35:08;99377.47;;;16.80;100.00
21960;BME280;11144;43.030;25.108;2023-04-10T08:36:56;99388.81;;;16.99;100.00
21960;BME280;11144;43.030;25.108;2023-04-10T08:38:42;99382.91;;;17.22;100.00
21960;BME280;11144;43.030;25.108;2023-04-10T08:40:22;99383.47;;;17.27;100.00
21960;BME280;11144;43.030;25.108;2023-04-10T08:42:02;99369.72;;;17.19;100.00
21960;BME280;11144;43.030;25.108;2023-04-10T08:43:57;99378.47;;;16.93;100.00
21960;BME280;11144;43.030;25.108;2023-04-10T08:45:39;99369.31;;;16.97;100.00
21960;BME280;11144;43.030;25.108;2023-04-10T08:47:40;99364.94;;;17.10;100.00
21960;BME280;11144;43.030;25.108;2023-04-10T08:49:53;99366.47;;;17.14;100.00
21960;BME280;11144;43.030;25.108;2023-04-10T08:51:36;99362.88;;;17.43;100.00
21960;BME280;11144;43.030;25.108;2023-04-10T08:53:32;99362.00;;;17.57;100.00
21960;BME280;11144;43.030;25.108;2023-04-10T08:55:12;99359.91;;;17.48;100.00
21960;BME280;11144;43.030;25.108;2023-04-10T08:57:06;99349.00;;;16.95;100.00
21960;BME280;11144;43.030;25.108;2023-04-10T08:59:02;99353.84;;;16.88;100.00
21960;BME280;11144;43.030;25.108;2023-04-10T09:01:04;99356.53;;;17.30;100.00
21960;BME280;11144;43.030;25.108;2023-04-10T09:02:44;99357.75;;;17.81;100.00
21960;BME280;11144;43.030;25.108;2023-04-10T09:04:49;99340.13;;;18.70;100.00
21960;BME280;11144;43.030;25.108;2023-04-10T09:06:51;99344.81;;;18.79;100.00
21960;BME280;11144;43.030;25.108;2023-04-10T09:08:33;99343.75;;;18.69;100.00
21960;BME280;11144;43.030;25.108;2023-04-10T09:10:25;99341.75;;;18.46;100.00
21960;BME280;11144;43.030;25.108;2023-04-10T09:12:06;99345.91;;;18.11;100.00
21960;BME280;11144;43.030;25.108;2023-04-10T09:13:59;99341.44;;;17.71;100.00
21960;BME280;11144;43.030;25.108;2023-04-10T09:15:57;99340.13;;;17.36;100.00
21960;BME280;11144;43.030;25.108;2023-04-10T09:17:55;99329.81;;;17.02;100.00
21960;BME280;11144;43.030;25.108;2023-04-10T09:19:34;99336.47;;;16.81;100.00
21960;BME280;11144;43.030;25.108;2023-04-10T09:21:15;99328.13;;;16.57;100.00
21960;BME280;11144;43.030;25.108;2023-04-10T09:23:19;99326.97;;;16.32;100.00
21960;BME280;11144;43.030;25.108;2023-04-10T09:25:01;99321.31;;;16.22;100.00
21960;BME280;11144;43.030;25.108;2023-04-10T09:27:01;99314.28;;;16.06;100.00
21960;BME280;11144;43.030;25.108;2023-04-10T09:29:02;99319.59;;;15.92;100.00
21960;BME280;11144;43.030;25.108;2023-04-10T09:30:42;99319.38;;;15.95;100.00
21960;BME280;11144;43.030;25.108;2023-04-10T09:32:39;99303.69;;;15.75;100.00
21960;BME280;11144;43.030;25.108;2023-04-10T09:34:20;99306.75;;;15.83;100.00
21960;BME280;11144;43.030;25.108;2023-04-10T09:36:13;99306.69;;;16.14;100.00
21960;BME280;11144;43.030;25.108;2023-04-10T09:38:00;99300.56;;;16.57;100.00
21960;BME280;11144;43.030;25.108;2023-04-10T09:39:46;99304.13;;;16.85;100.00
21960;BME280;11144;43.030;25.108;2023-04-10T09:41:27;99303.69;;;17.21;100.00
21960;BME280;11144;43.030;25.108;2023-04-10T09:43:19;99300.63;;;17.41;99.99
21960;BME280;11144;43.030;25.108;2023-04-10T09:45:12;99301.47;;;17.82;100.00
21960;BME280;11144;43.030;25.108;2023-04-10T09:46:57;99288.06;;;17.96;100.00
21960;BME280;11144;43.030;25.108;2023-04-10T09:48:59;99288.41;;;18.04;93.43
21960;BME280;11144;43.030;25.108;2023-04-10T09:50:58;99291.13;;;17.90;92.43